PWSweather.com
Personal Weather Stations
Station Observations
WSLEMBEKE
Flanders, LembekeBE 9971

FlandersLembekeBE 9971

Lat: 51.1917315, Lon: 3.6361177999999654

Elevation: 21

Station Type: Davis Vantage Pro2

Latest ConditionsUpdated 3:55:17 PM GMT+01:01 Thursday, Nov 14, 2019
Currently Today's Max Today's Min Today's Average
Temperature 45.0°F7.2°C 46.8°F8.2°C 41.2°F5.1°C 42.8°F6.0°C
Dew Point 41.5°F5.3°C 43.5°F6.4°C 39.2°F4.0°C 40.5°F4.7°C
Winds 6.0 mph SE9.7 kmh SE 12.8 mph -20.6 kmh - - 8.2 mph 13.2 kmh
Wind Gusts 9.6 mph15.4 kmh 25.5 mph41.0 kmh - -
Humidity 88% 94% 85% 92%
Pressure 29.57 in1001.4 mb 29.57 in1001.4 mb 29.39 in995.3 mb -
Precipitation - 0.05 in1.3 mm - -
Hour Temp Dew Point Humidity Winds Wind Gusts Pressure Precip Precip Rate Daily Precip Total
03:55 PM 45.0°F7.2°C 41.5°F5.3°C 88% 6.0 mph SE9.7 kmh SE 9.6 mph15.4 kmh 29.57 in1001.4 mb 0.00 in0.0 mm 0.00 in0.0 mm 0.05 in1.3 mm
03:50 PM 45.1°F7.3°C 41.7°F5.4°C 88% 6.7 mph SE10.8 kmh SE 9.6 mph15.4 kmh 29.57 in1001.4 mb 0.00 in0.0 mm 0.00 in0.0 mm 0.05 in1.3 mm
03:45 PM 45.3°F7.4°C 41.9°F5.5°C 88% 5.6 mph ESE9.0 kmh ESE 11.6 mph18.7 kmh 29.57 in1001.4 mb 0.00 in0.0 mm 0.00 in0.0 mm 0.05 in1.3 mm
03:40 PM 45.5°F7.5°C 42.1°F5.6°C 88% 6.9 mph SE11.1 kmh SE 10.5 mph16.9 kmh 29.57 in1001.4 mb 0.00 in0.0 mm 0.00 in0.0 mm 0.05 in1.3 mm
03:35 PM 45.3°F7.4°C 41.9°F5.5°C 88% 6.5 mph SE10.5 kmh SE 10.5 mph16.9 kmh 29.57 in1001.4 mb 0.00 in0.0 mm 0.00 in0.0 mm 0.05 in1.3 mm
03:30 PM 45.1°F7.3°C 42.1°F5.6°C 89% 5.4 mph SE8.7 kmh SE 9.6 mph15.4 kmh 29.56 in1001.0 mb 0.00 in0.0 mm 0.00 in0.0 mm 0.05 in1.3 mm
03:25 PM 44.8°F7.1°C 41.4°F5.2°C 88% 6.9 mph SE11.1 kmh SE 10.5 mph16.9 kmh 29.56 in1001.0 mb 0.00 in0.0 mm 0.00 in0.0 mm 0.05 in1.3 mm
03:20 PM 44.6°F7.0°C 41.0°F5.0°C 87% 6.0 mph E9.7 kmh E 9.6 mph15.4 kmh 29.56 in1001.0 mb 0.00 in0.0 mm 0.00 in0.0 mm 0.05 in1.3 mm
03:15 PM 44.6°F7.0°C 41.0°F5.0°C 87% 5.8 mph SE9.3 kmh SE 11.6 mph18.7 kmh 29.56 in1001.0 mb 0.00 in0.0 mm 0.00 in0.0 mm 0.05 in1.3 mm
03:10 PM 44.8°F7.1°C 41.2°F5.1°C 87% 7.8 mph S12.6 kmh S 11.6 mph18.7 kmh 29.56 in1001.0 mb 0.00 in0.0 mm 0.00 in0.0 mm 0.05 in1.3 mm
03:05 PM 44.8°F7.1°C 41.2°F5.1°C 87% 5.4 mph SE8.7 kmh SE 8.5 mph13.7 kmh 29.56 in1001.0 mb 0.00 in0.0 mm 0.00 in0.0 mm 0.05 in1.3 mm
03:00 PM 44.8°F7.1°C 40.8°F4.9°C 86% 3.8 mph SE6.1 kmh SE 10.5 mph16.9 kmh 29.55 in1000.7 mb 0.00 in0.0 mm 0.00 in0.0 mm 0.05 in1.3 mm
02:55 PM 45.0°F7.2°C 41.0°F5.0°C 86% 6.3 mph S10.1 kmh S 12.8 mph20.6 kmh 29.55 in1000.7 mb 0.00 in0.0 mm 0.00 in0.0 mm 0.05 in1.3 mm
02:50 PM 45.1°F7.3°C 41.2°F5.1°C 86% 4.7 mph SE7.6 kmh SE 12.8 mph20.6 kmh 29.55 in1000.7 mb 0.00 in0.0 mm 0.00 in0.0 mm 0.05 in1.3 mm
02:45 PM 45.7°F7.6°C 41.4°F5.2°C 85% 7.4 mph SSE11.9 kmh SSE 13.9 mph22.4 kmh 29.55 in1000.7 mb 0.00 in0.0 mm 0.00 in0.0 mm 0.05 in1.3 mm
02:40 PM 46.0°F7.8°C 41.7°F5.4°C 85% 8.7 mph SE14.0 kmh SE 15.9 mph25.6 kmh 29.55 in1000.7 mb 0.00 in0.0 mm 0.00 in0.0 mm 0.05 in1.3 mm
02:35 PM 46.0°F7.8°C 42.1°F5.6°C 86% 7.6 mph SE12.2 kmh SE 11.6 mph18.7 kmh 29.55 in1000.7 mb 0.00 in0.0 mm 0.00 in0.0 mm 0.05 in1.3 mm
02:30 PM 45.9°F7.7°C 42.3°F5.7°C 87% 7.4 mph SE11.9 kmh SE 11.6 mph18.7 kmh 29.54 in1000.3 mb 0.00 in0.0 mm 0.00 in0.0 mm 0.05 in1.3 mm
02:25 PM 45.1°F7.3°C 41.5°F5.3°C 87% 6.7 mph SE10.8 kmh SE 10.5 mph16.9 kmh 29.54 in1000.3 mb 0.00 in0.0 mm 0.00 in0.0 mm 0.05 in1.3 mm
02:20 PM 45.1°F7.3°C 41.2°F5.1°C 86% 8.9 mph E14.3 kmh E 12.8 mph20.6 kmh 29.54 in1000.3 mb 0.00 in0.0 mm 0.00 in0.0 mm 0.05 in1.3 mm
02:15 PM 45.7°F7.6°C 41.7°F5.4°C 86% 8.5 mph SSE13.7 kmh SSE 11.6 mph18.7 kmh 29.53 in1000.0 mb 0.00 in0.0 mm 0.00 in0.0 mm 0.05 in1.3 mm
02:10 PM 46.4°F8.0°C 42.4°F5.8°C 86% 8.1 mph SE13.0 kmh SE 13.9 mph22.4 kmh 29.53 in1000.0 mb 0.00 in0.0 mm 0.00 in0.0 mm 0.05 in1.3 mm
02:05 PM 46.8°F8.2°C 42.8°F6.0°C 86% 6.9 mph SSE11.1 kmh SSE 13.9 mph22.4 kmh 29.54 in1000.3 mb 0.00 in0.0 mm 0.00 in0.0 mm 0.05 in1.3 mm
02:00 PM 46.8°F8.2°C 43.2°F6.2°C 87% 5.8 mph SE9.3 kmh SE 14.8 mph23.8 kmh 29.54 in1000.3 mb 0.00 in0.0 mm 0.00 in0.0 mm 0.05 in1.3 mm
01:55 PM 46.6°F8.1°C 43.0°F6.1°C 87% 4.9 mph SSE7.9 kmh SSE 10.5 mph16.9 kmh 29.54 in1000.3 mb 0.00 in0.0 mm 0.00 in0.0 mm 0.05 in1.3 mm
01:50 PM 46.6°F8.1°C 43.0°F6.1°C 87% 5.1 mph SE8.2 kmh SE 10.5 mph16.9 kmh 29.54 in1000.3 mb 0.00 in0.0 mm 0.00 in0.0 mm 0.05 in1.3 mm
01:45 PM 46.6°F8.1°C 43.5°F6.4°C 89% 4.9 mph SSE7.9 kmh SSE 12.8 mph20.6 kmh 29.54 in1000.3 mb 0.00 in0.0 mm 0.00 in0.0 mm 0.05 in1.3 mm
01:40 PM 45.1°F7.3°C 42.1°F5.6°C 89% 6.0 mph SE9.7 kmh SE 12.8 mph20.6 kmh 29.54 in1000.3 mb 0.00 in0.0 mm 0.00 in0.0 mm 0.05 in1.3 mm
01:35 PM 45.0°F7.2°C 41.9°F5.5°C 89% 5.4 mph SW8.7 kmh SW 9.6 mph15.4 kmh 29.54 in1000.3 mb 0.00 in0.0 mm 0.00 in0.0 mm 0.05 in1.3 mm
01:30 PM 45.0°F7.2°C 41.9°F5.5°C 89% 7.4 mph SSW11.9 kmh SSW 11.6 mph18.7 kmh 29.53 in1000.0 mb 0.00 in0.0 mm 0.00 in0.0 mm 0.05 in1.3 mm
01:25 PM 45.0°F7.2°C 42.3°F5.7°C 90% 5.1 mph SE8.2 kmh SE 9.6 mph15.4 kmh 29.53 in1000.0 mb 0.00 in0.0 mm 0.00 in0.0 mm 0.05 in1.3 mm
01:20 PM 44.8°F7.1°C 41.7°F5.4°C 89% 6.3 mph SE10.1 kmh SE 10.5 mph16.9 kmh 29.54 in1000.3 mb 0.00 in0.0 mm 0.00 in0.0 mm 0.05 in1.3 mm
01:15 PM 44.8°F7.1°C 41.7°F5.4°C 89% 5.4 mph ESE8.7 kmh ESE 13.9 mph22.4 kmh 29.54 in1000.3 mb 0.00 in0.0 mm 0.00 in0.0 mm 0.05 in1.3 mm
01:10 PM 44.6°F7.0°C 41.5°F5.3°C 89% 6.5 mph SSE10.5 kmh SSE 10.5 mph16.9 kmh 29.54 in1000.3 mb 0.00 in0.0 mm 0.00 in0.0 mm 0.05 in1.3 mm
01:05 PM 44.6°F7.0°C 41.9°F5.5°C 90% 6.3 mph SE10.1 kmh SE 10.5 mph16.9 kmh 29.54 in1000.3 mb 0.00 in0.0 mm 0.00 in0.0 mm 0.05 in1.3 mm
12:55 PM 44.2°F6.8°C 41.5°F5.3°C 90% 5.8 mph SE9.3 kmh SE 11.6 mph18.7 kmh 29.54 in1000.3 mb 0.00 in0.0 mm 0.00 in0.0 mm 0.05 in1.3 mm
12:50 PM 44.1°F6.7°C 41.4°F5.2°C 90% 5.1 mph SE8.2 kmh SE 11.6 mph18.7 kmh 29.53 in1000.0 mb 0.00 in0.0 mm 0.00 in0.0 mm 0.05 in1.3 mm
12:45 PM 44.1°F6.7°C 41.4°F5.2°C 90% 6.0 mph S9.7 kmh S 11.6 mph18.7 kmh 29.54 in1000.3 mb 0.00 in0.0 mm 0.00 in0.0 mm 0.05 in1.3 mm
12:40 PM 44.1°F6.7°C 41.5°F5.3°C 91% 6.7 mph S10.8 kmh S 13.9 mph22.4 kmh 29.53 in1000.0 mb 0.00 in0.0 mm 0.00 in0.0 mm 0.05 in1.3 mm
12:35 PM 44.1°F6.7°C 41.5°F5.3°C 91% 7.4 mph S11.9 kmh S 13.9 mph22.4 kmh 29.53 in1000.0 mb 0.00 in0.0 mm 0.00 in0.0 mm 0.05 in1.3 mm
12:30 PM 43.9°F6.6°C 41.4°F5.2°C 91% 6.0 mph SSE9.7 kmh SSE 11.6 mph18.7 kmh 29.54 in1000.3 mb 0.00 in0.0 mm 0.00 in0.0 mm 0.05 in1.3 mm
12:25 PM 43.9°F6.6°C 41.4°F5.2°C 91% 9.6 mph SW15.4 kmh SW 19.0 mph30.6 kmh 29.53 in1000.0 mb 0.00 in0.0 mm 0.00 in0.0 mm 0.05 in1.3 mm
12:20 PM 43.9°F6.6°C 41.4°F5.2°C 91% 6.9 mph S11.1 kmh S 15.9 mph25.6 kmh 29.54 in1000.3 mb 0.00 in0.0 mm 0.00 in0.0 mm 0.05 in1.3 mm
12:15 PM 43.9°F6.6°C 41.4°F5.2°C 91% 9.6 mph S15.4 kmh S 19.0 mph30.6 kmh 29.53 in1000.0 mb 0.00 in0.0 mm 0.00 in0.0 mm 0.05 in1.3 mm
12:10 PM 43.9°F6.6°C 41.7°F5.4°C 92% 9.8 mph S15.8 kmh S 18.1 mph29.1 kmh 29.53 in1000.0 mb 0.00 in0.0 mm 0.00 in0.0 mm 0.05 in1.3 mm
12:05 PM 43.5°F6.4°C 41.4°F5.2°C 92% 9.4 mph S15.1 kmh S 14.8 mph23.8 kmh 29.53 in1000.0 mb 0.00 in0.0 mm 0.00 in0.0 mm 0.05 in1.3 mm
12:00 PM 43.3°F6.3°C 41.2°F5.1°C 92% 10.7 mph SW17.2 kmh SW 17.0 mph27.4 kmh 29.53 in1000.0 mb 0.00 in0.0 mm 0.00 in0.0 mm 0.05 in1.3 mm
11:55 AM 43.2°F6.2°C 41.0°F5.0°C 92% 10.7 mph SSE17.2 kmh SSE 19.0 mph30.6 kmh 29.53 in1000.0 mb 0.00 in0.0 mm 0.00 in0.0 mm 0.05 in1.3 mm
11:50 AM 43.2°F6.2°C 41.0°F5.0°C 92% 11.2 mph SSE18.0 kmh SSE 18.1 mph29.1 kmh 29.53 in1000.0 mb 0.00 in0.0 mm 0.00 in0.0 mm 0.05 in1.3 mm
11:45 AM 43.0°F6.1°C 40.8°F4.9°C 92% 10.1 mph SSW16.3 kmh SSW 15.9 mph25.6 kmh 29.53 in1000.0 mb 0.00 in0.0 mm 0.00 in0.0 mm 0.05 in1.3 mm
11:40 AM 43.0°F6.1°C 40.8°F4.9°C 92% 4.0 mph SE6.4 kmh SE 12.8 mph20.6 kmh 29.52 in999.7 mb 0.00 in0.0 mm 0.00 in0.0 mm 0.05 in1.3 mm
11:35 AM 43.0°F6.1°C 41.2°F5.1°C 93% 6.5 mph S10.5 kmh S 15.9 mph25.6 kmh 29.53 in1000.0 mb 0.00 in0.0 mm 0.00 in0.0 mm 0.05 in1.3 mm
11:30 AM 42.6°F5.9°C 40.5°F4.7°C 92% 11.2 mph S18.0 kmh S 17.0 mph27.4 kmh 29.53 in1000.0 mb 0.00 in0.0 mm 0.00 in0.0 mm 0.05 in1.3 mm
11:25 AM 42.6°F5.9°C 40.8°F4.9°C 93% 9.4 mph S15.1 kmh S 14.8 mph23.8 kmh 29.53 in1000.0 mb 0.00 in0.0 mm 0.00 in0.0 mm 0.05 in1.3 mm
11:20 AM 42.3°F5.7°C 40.5°F4.7°C 93% 7.2 mph SE11.6 kmh SE 13.9 mph22.4 kmh 29.52 in999.7 mb 0.00 in0.0 mm 0.00 in0.0 mm 0.05 in1.3 mm
11:15 AM 42.3°F5.7°C 40.5°F4.7°C 93% 6.0 mph SE9.7 kmh SE 10.5 mph16.9 kmh 29.52 in999.7 mb 0.01 in0.3 mm 0.00 in0.0 mm 0.05 in1.3 mm
11:10 AM 42.3°F5.7°C 40.5°F4.7°C 93% 6.0 mph S9.7 kmh S 14.8 mph23.8 kmh 29.52 in999.7 mb 0.01 in0.3 mm 0.00 in0.0 mm 0.05 in1.3 mm
11:05 AM 42.1°F5.6°C 40.3°F4.6°C 93% 7.2 mph SE11.6 kmh SE 14.8 mph23.8 kmh 29.52 in999.7 mb 0.01 in0.3 mm 0.00 in0.0 mm 0.05 in1.3 mm
11:00 AM 42.1°F5.6°C 40.3°F4.6°C 93% 5.6 mph SE9.0 kmh SE 10.5 mph16.9 kmh 29.52 in999.7 mb 0.01 in0.3 mm 0.00 in0.0 mm 0.05 in1.3 mm
10:55 AM 41.9°F5.5°C 40.1°F4.5°C 93% 6.3 mph SSE10.1 kmh SSE 13.9 mph22.4 kmh 29.52 in999.7 mb 0.01 in0.3 mm 0.00 in0.0 mm 0.05 in1.3 mm
10:50 AM 41.9°F5.5°C 40.1°F4.5°C 93% 6.5 mph SW10.5 kmh SW 11.6 mph18.7 kmh 29.51 in999.3 mb 0.01 in0.3 mm 0.00 in0.0 mm 0.05 in1.3 mm
10:45 AM 41.9°F5.5°C 39.7°F4.3°C 92% 6.0 mph SSE9.7 kmh SSE 18.1 mph29.1 kmh 29.51 in999.3 mb 0.01 in0.3 mm 0.00 in0.0 mm 0.05 in1.3 mm
10:40 AM 41.7°F5.4°C 39.9°F4.4°C 93% 5.4 mph S8.7 kmh S 13.9 mph22.4 kmh 29.51 in999.3 mb 0.02 in0.5 mm 0.00 in0.0 mm 0.05 in1.3 mm
10:35 AM 41.7°F5.4°C 39.9°F4.4°C 93% 6.9 mph S11.1 kmh S 13.9 mph22.4 kmh 29.50 in999.0 mb 0.02 in0.5 mm 0.00 in0.0 mm 0.05 in1.3 mm
10:30 AM 41.5°F5.3°C 39.7°F4.3°C 93% 7.6 mph SE12.2 kmh SE 11.6 mph18.7 kmh 29.50 in999.0 mb 0.02 in0.5 mm 0.00 in0.0 mm 0.05 in1.3 mm
10:25 AM 41.5°F5.3°C 39.4°F4.1°C 92% 7.6 mph SSE12.2 kmh SSE 17.0 mph27.4 kmh 29.49 in998.6 mb 0.02 in0.5 mm 0.00 in0.0 mm 0.05 in1.3 mm
10:20 AM 41.4°F5.2°C 39.2°F4.0°C 92% 6.9 mph S11.1 kmh S 12.8 mph20.6 kmh 29.50 in999.0 mb 0.02 in0.5 mm 0.12 in3.0 mm 0.05 in1.3 mm
10:15 AM 41.4°F5.2°C 39.2°F4.0°C 92% 8.3 mph S13.4 kmh S 17.0 mph27.4 kmh 29.49 in998.6 mb 0.01 in0.3 mm 0.00 in0.0 mm 0.04 in1.0 mm
10:10 AM 41.4°F5.2°C 39.2°F4.0°C 92% 9.8 mph S15.8 kmh S 21.3 mph34.3 kmh 29.50 in999.0 mb 0.01 in0.3 mm 0.00 in0.0 mm 0.04 in1.0 mm
10:05 AM 41.5°F5.3°C 39.4°F4.1°C 92% 11.4 mph SSE18.3 kmh SSE 17.0 mph27.4 kmh 29.50 in999.0 mb 0.01 in0.3 mm 0.00 in0.0 mm 0.04 in1.0 mm
10:00 AM 41.7°F5.4°C 39.6°F4.2°C 92% 7.4 mph SE11.9 kmh SE 18.1 mph29.1 kmh 29.49 in998.6 mb 0.01 in0.3 mm 0.00 in0.0 mm 0.04 in1.0 mm
09:55 AM 41.7°F5.4°C 39.6°F4.2°C 92% 9.6 mph SE15.4 kmh SE 20.1 mph32.3 kmh 29.49 in998.6 mb 0.01 in0.3 mm 0.00 in0.0 mm 0.04 in1.0 mm
09:50 AM 41.9°F5.5°C 39.7°F4.3°C 92% 8.7 mph SSW14.0 kmh SSW 14.8 mph23.8 kmh 29.49 in998.6 mb 0.01 in0.3 mm 0.00 in0.0 mm 0.04 in1.0 mm
09:45 AM 41.9°F5.5°C 39.7°F4.3°C 92% 8.7 mph S14.0 kmh S 17.0 mph27.4 kmh 29.49 in998.6 mb 0.02 in0.5 mm 0.12 in3.0 mm 0.04 in1.0 mm
09:40 AM 41.9°F5.5°C 39.7°F4.3°C 92% 9.6 mph S15.4 kmh S 25.5 mph41.0 kmh 29.49 in998.6 mb 0.01 in0.3 mm 0.00 in0.0 mm 0.03 in0.8 mm
09:35 AM 41.9°F5.5°C 39.7°F4.3°C 92% 11.0 mph S17.7 kmh S 25.5 mph41.0 kmh 29.48 in998.3 mb 0.01 in0.3 mm 0.00 in0.0 mm 0.03 in0.8 mm
09:30 AM 42.1°F5.6°C 39.9°F4.4°C 92% 8.5 mph SSE13.7 kmh SSE 17.0 mph27.4 kmh 29.48 in998.3 mb 0.01 in0.3 mm 0.00 in0.0 mm 0.03 in0.8 mm
09:25 AM 42.1°F5.6°C 39.9°F4.4°C 92% 10.7 mph ESE17.2 kmh ESE 18.1 mph29.1 kmh 29.48 in998.3 mb 0.01 in0.3 mm 0.00 in0.0 mm 0.03 in0.8 mm
09:20 AM 42.1°F5.6°C 39.9°F4.4°C 92% 6.3 mph SE10.1 kmh SE 15.9 mph25.6 kmh 29.47 in998.0 mb 0.01 in0.3 mm 0.00 in0.0 mm 0.03 in0.8 mm
09:15 AM 42.1°F5.6°C 39.9°F4.4°C 92% 6.0 mph S9.7 kmh S 10.5 mph16.9 kmh 29.47 in998.0 mb 0.02 in0.5 mm 0.00 in0.0 mm 0.03 in0.8 mm
09:10 AM 41.9°F5.5°C 39.7°F4.3°C 92% 6.7 mph SE10.8 kmh SE 13.9 mph22.4 kmh 29.47 in998.0 mb 0.02 in0.5 mm 0.00 in0.0 mm 0.03 in0.8 mm
09:05 AM 42.1°F5.6°C 39.9°F4.4°C 92% 7.2 mph S11.6 kmh S 15.9 mph25.6 kmh 29.47 in998.0 mb 0.02 in0.5 mm 0.00 in0.0 mm 0.03 in0.8 mm
09:00 AM 42.1°F5.6°C 39.9°F4.4°C 92% 6.3 mph SSW10.1 kmh SSW 12.8 mph20.6 kmh 29.47 in998.0 mb 0.02 in0.5 mm 0.00 in0.0 mm 0.03 in0.8 mm
08:55 AM 42.1°F5.6°C 39.9°F4.4°C 92% 10.1 mph S16.3 kmh S 17.0 mph27.4 kmh 29.47 in998.0 mb 0.02 in0.5 mm 0.00 in0.0 mm 0.03 in0.8 mm
08:50 AM 42.1°F5.6°C 39.9°F4.4°C 92% 11.4 mph SE18.3 kmh SE 19.0 mph30.6 kmh 29.46 in997.6 mb 0.02 in0.5 mm 0.00 in0.0 mm 0.03 in0.8 mm
08:45 AM 42.3°F5.7°C 40.1°F4.5°C 92% 10.7 mph S17.2 kmh S 22.4 mph36.0 kmh 29.47 in998.0 mb 0.02 in0.5 mm 0.00 in0.0 mm 0.02 in0.5 mm
08:40 AM 42.4°F5.8°C 40.3°F4.6°C 92% 8.7 mph SSE14.0 kmh SSE 15.9 mph25.6 kmh 29.46 in997.6 mb 0.02 in0.5 mm 0.00 in0.0 mm 0.02 in0.5 mm
08:35 AM 42.4°F5.8°C 40.3°F4.6°C 92% 6.7 mph SSE10.8 kmh SSE 11.6 mph18.7 kmh 29.46 in997.6 mb 0.02 in0.5 mm 0.00 in0.0 mm 0.02 in0.5 mm
08:30 AM 42.4°F5.8°C 40.3°F4.6°C 92% 7.2 mph SE11.6 kmh SE 13.9 mph22.4 kmh 29.46 in997.6 mb 0.02 in0.5 mm 0.00 in0.0 mm 0.02 in0.5 mm
08:25 AM 42.6°F5.9°C 40.5°F4.7°C 92% 6.9 mph S11.1 kmh S 12.8 mph20.6 kmh 29.46 in997.6 mb 0.02 in0.5 mm 0.00 in0.0 mm 0.02 in0.5 mm
08:20 AM 42.6°F5.9°C 40.5°F4.7°C 92% 7.4 mph SE11.9 kmh SE 14.8 mph23.8 kmh 29.45 in997.3 mb 0.02 in0.5 mm 0.12 in3.0 mm 0.02 in0.5 mm
08:15 AM 42.8°F6.0°C 40.6°F4.8°C 92% 6.5 mph S10.5 kmh S 10.5 mph16.9 kmh 29.45 in997.3 mb 0.01 in0.3 mm 0.00 in0.0 mm 0.02 in0.5 mm
08:10 AM 42.8°F6.0°C 40.6°F4.8°C 92% 5.6 mph SSE9.0 kmh SSE 17.0 mph27.4 kmh 29.45 in997.3 mb 0.01 in0.3 mm 0.00 in0.0 mm 0.02 in0.5 mm
08:05 AM 42.8°F6.0°C 40.6°F4.8°C 92% 7.8 mph S12.6 kmh S 12.8 mph20.6 kmh 29.44 in997.0 mb 0.01 in0.3 mm 0.12 in3.0 mm 0.02 in0.5 mm
08:00 AM 42.8°F6.0°C 40.6°F4.8°C 92% 9.8 mph S15.8 kmh S 15.9 mph25.6 kmh 29.44 in997.0 mb 0.00 in0.0 mm 0.00 in0.0 mm 0.01 in0.3 mm
07:55 AM 43.0°F6.1°C 40.8°F4.9°C 92% 7.6 mph SE12.2 kmh SE 13.9 mph22.4 kmh 29.44 in997.0 mb 0.00 in0.0 mm 0.00 in0.0 mm 0.01 in0.3 mm
07:50 AM 42.8°F6.0°C 40.6°F4.8°C 92% 7.6 mph E12.2 kmh E 12.8 mph20.6 kmh 29.44 in997.0 mb 0.00 in0.0 mm 0.00 in0.0 mm 0.01 in0.3 mm
07:45 AM 42.8°F6.0°C 40.6°F4.8°C 92% 6.9 mph S11.1 kmh S 15.9 mph25.6 kmh 29.43 in996.6 mb 0.00 in0.0 mm 0.00 in0.0 mm 0.01 in0.3 mm
07:40 AM 42.8°F6.0°C 40.6°F4.8°C 92% 7.6 mph SE12.2 kmh SE 13.9 mph22.4 kmh 29.43 in996.6 mb 0.01 in0.3 mm 0.00 in0.0 mm 0.01 in0.3 mm
07:35 AM 42.8°F6.0°C 40.6°F4.8°C 92% 9.8 mph SE15.8 kmh SE 13.9 mph22.4 kmh 29.43 in996.6 mb 0.01 in0.3 mm 0.00 in0.0 mm 0.01 in0.3 mm
07:30 AM 42.8°F6.0°C 40.6°F4.8°C 92% 6.7 mph SE10.8 kmh SE 15.9 mph25.6 kmh 29.43 in996.6 mb 0.01 in0.3 mm 0.00 in0.0 mm 0.01 in0.3 mm
07:25 AM 42.8°F6.0°C 40.6°F4.8°C 92% 8.7 mph SE14.0 kmh SE 15.9 mph25.6 kmh 29.43 in996.6 mb 0.01 in0.3 mm 0.00 in0.0 mm 0.01 in0.3 mm
07:20 AM 42.8°F6.0°C 40.6°F4.8°C 92% 11.4 mph SE18.3 kmh SE 14.8 mph23.8 kmh 29.43 in996.6 mb 0.01 in0.3 mm 0.00 in0.0 mm 0.01 in0.3 mm
07:15 AM 42.6°F5.9°C 40.5°F4.7°C 92% 10.7 mph ESE17.2 kmh ESE 18.1 mph29.1 kmh 29.43 in996.6 mb 0.01 in0.3 mm 0.00 in0.0 mm 0.01 in0.3 mm
07:10 AM 42.6°F5.9°C 40.5°F4.7°C 92% 11.6 mph SE18.7 kmh SE 13.9 mph22.4 kmh 29.42 in996.3 mb 0.01 in0.3 mm 0.00 in0.0 mm 0.01 in0.3 mm
07:05 AM 42.6°F5.9°C 40.5°F4.7°C 92% 8.5 mph SE13.7 kmh SE 14.8 mph23.8 kmh 29.42 in996.3 mb 0.01 in0.3 mm 0.00 in0.0 mm 0.01 in0.3 mm
07:00 AM 42.6°F5.9°C 40.5°F4.7°C 92% 10.1 mph ESE16.3 kmh ESE 15.9 mph25.6 kmh 29.41 in995.9 mb 0.01 in0.3 mm 0.00 in0.0 mm 0.01 in0.3 mm
06:55 AM 42.6°F5.9°C 40.5°F4.7°C 92% 9.4 mph E15.1 kmh E 13.9 mph22.4 kmh 29.41 in995.9 mb 0.01 in0.3 mm 0.00 in0.0 mm 0.01 in0.3 mm
06:50 AM 42.6°F5.9°C 40.5°F4.7°C 92% 9.6 mph ESE15.4 kmh ESE 13.9 mph22.4 kmh 29.41 in995.9 mb 0.01 in0.3 mm 0.00 in0.0 mm 0.01 in0.3 mm
06:45 AM 42.6°F5.9°C 40.1°F4.5°C 91% 10.3 mph SE16.6 kmh SE 13.9 mph22.4 kmh 29.41 in995.9 mb 0.01 in0.3 mm 0.12 in3.0 mm 0.01 in0.3 mm
06:40 AM 42.6°F5.9°C 40.1°F4.5°C 91% 8.5 mph ESE13.7 kmh ESE 13.9 mph22.4 kmh 29.41 in995.9 mb 0.00 in0.0 mm 0.00 in0.0 mm 0.00 in0.0 mm
06:35 AM 42.6°F5.9°C 40.1°F4.5°C 91% 8.7 mph SE14.0 kmh SE 12.8 mph20.6 kmh 29.41 in995.9 mb 0.00 in0.0 mm 0.00 in0.0 mm 0.00 in0.0 mm
06:30 AM 42.6°F5.9°C 40.5°F4.7°C 92% 10.3 mph SE16.6 kmh SE 12.8 mph20.6 kmh 29.41 in995.9 mb 0.00 in0.0 mm 0.00 in0.0 mm 0.00 in0.0 mm
06:25 AM 42.6°F5.9°C 40.5°F4.7°C 92% 9.4 mph E15.1 kmh E 15.9 mph25.6 kmh 29.41 in995.9 mb 0.00 in0.0 mm 0.00 in0.0 mm 0.00 in0.0 mm
06:20 AM 42.6°F5.9°C 40.5°F4.7°C 92% 9.6 mph ESE15.4 kmh ESE 13.9 mph22.4 kmh 29.41 in995.9 mb 0.00 in0.0 mm 0.00 in0.0 mm 0.00 in0.0 mm
06:15 AM 42.6°F5.9°C 40.5°F4.7°C 92% 11.2 mph SE18.0 kmh SE 15.9 mph25.6 kmh 29.40 in995.6 mb 0.00 in0.0 mm 0.00 in0.0 mm 0.00 in0.0 mm
06:10 AM 42.6°F5.9°C 40.5°F4.7°C 92% 11.0 mph ESE17.7 kmh ESE 15.9 mph25.6 kmh 29.41 in995.9 mb 0.00 in0.0 mm 0.00 in0.0 mm 0.00 in0.0 mm
06:05 AM 42.6°F5.9°C 40.5°F4.7°C 92% 9.8 mph SE15.8 kmh SE 13.9 mph22.4 kmh 29.41 in995.9 mb 0.00 in0.0 mm 0.00 in0.0 mm 0.00 in0.0 mm
05:59 AM 42.4°F5.8°C 40.3°F4.6°C 92% 9.2 mph SE14.8 kmh SE 14.8 mph23.8 kmh 29.41 in995.9 mb 0.00 in0.0 mm 0.00 in0.0 mm 0.00 in0.0 mm
05:54 AM 42.4°F5.8°C 40.3°F4.6°C 92% 11.2 mph SE18.0 kmh SE 14.8 mph23.8 kmh 29.40 in995.6 mb 0.00 in0.0 mm 0.00 in0.0 mm 0.00 in0.0 mm
05:49 AM 42.4°F5.8°C 40.3°F4.6°C 92% 11.6 mph SE18.7 kmh SE 14.8 mph23.8 kmh 29.40 in995.6 mb 0.00 in0.0 mm 0.00 in0.0 mm 0.00 in0.0 mm
05:44 AM 42.4°F5.8°C 40.3°F4.6°C 92% 10.7 mph ESE17.2 kmh ESE 15.9 mph25.6 kmh 29.40 in995.6 mb 0.00 in0.0 mm 0.00 in0.0 mm 0.00 in0.0 mm
05:39 AM 42.4°F5.8°C 40.3°F4.6°C 92% 10.5 mph SE16.9 kmh SE 14.8 mph23.8 kmh 29.40 in995.6 mb 0.00 in0.0 mm 0.00 in0.0 mm 0.00 in0.0 mm
05:34 AM 42.4°F5.8°C 40.3°F4.6°C 92% 10.7 mph SE17.2 kmh SE 17.0 mph27.4 kmh 29.40 in995.6 mb 0.00 in0.0 mm 0.00 in0.0 mm 0.00 in0.0 mm
05:29 AM 42.4°F5.8°C 40.3°F4.6°C 92% 11.6 mph SE18.7 kmh SE 17.0 mph27.4 kmh 29.40 in995.6 mb 0.00 in0.0 mm 0.00 in0.0 mm 0.00 in0.0 mm
05:24 AM 42.4°F5.8°C 40.6°F4.8°C 93% 10.3 mph ESE16.6 kmh ESE 15.9 mph25.6 kmh 29.40 in995.6 mb 0.00 in0.0 mm 0.00 in0.0 mm 0.00 in0.0 mm
05:19 AM 42.4°F5.8°C 40.6°F4.8°C 93% 10.5 mph SE16.9 kmh SE 14.8 mph23.8 kmh 29.40 in995.6 mb 0.00 in0.0 mm 0.00 in0.0 mm 0.00 in0.0 mm
05:14 AM 42.4°F5.8°C 40.6°F4.8°C 93% 9.2 mph ESE14.8 kmh ESE 13.9 mph22.4 kmh 29.40 in995.6 mb 0.00 in0.0 mm 0.00 in0.0 mm 0.00 in0.0 mm
05:09 AM 42.3°F5.7°C 40.5°F4.7°C 93% 11.2 mph SE18.0 kmh SE 15.9 mph25.6 kmh 29.40 in995.6 mb 0.00 in0.0 mm 0.00 in0.0 mm 0.00 in0.0 mm
05:04 AM 42.3°F5.7°C 40.5°F4.7°C 93% 12.1 mph SE19.5 kmh SE 15.9 mph25.6 kmh 29.40 in995.6 mb 0.00 in0.0 mm 0.00 in0.0 mm 0.00 in0.0 mm
04:59 AM 42.3°F5.7°C 40.5°F4.7°C 93% 12.1 mph ESE19.5 kmh ESE 15.9 mph25.6 kmh 29.39 in995.3 mb 0.00 in0.0 mm 0.00 in0.0 mm 0.00 in0.0 mm
04:54 AM 42.1°F5.6°C 40.3°F4.6°C 93% 11.9 mph SE19.2 kmh SE 17.0 mph27.4 kmh 29.39 in995.3 mb 0.00 in0.0 mm 0.00 in0.0 mm 0.00 in0.0 mm
04:49 AM 42.1°F5.6°C 40.3°F4.6°C 93% 9.6 mph ESE15.4 kmh ESE 17.0 mph27.4 kmh 29.40 in995.6 mb 0.00 in0.0 mm 0.00 in0.0 mm 0.00 in0.0 mm
04:44 AM 42.1°F5.6°C 40.3°F4.6°C 93% 11.4 mph ESE18.3 kmh ESE 18.1 mph29.1 kmh 29.40 in995.6 mb 0.00 in0.0 mm 0.00 in0.0 mm 0.00 in0.0 mm
04:39 AM 41.9°F5.5°C 40.1°F4.5°C 93% 12.3 mph ESE19.8 kmh ESE 18.1 mph29.1 kmh 29.40 in995.6 mb 0.00 in0.0 mm 0.00 in0.0 mm 0.00 in0.0 mm
04:34 AM 41.9°F5.5°C 40.1°F4.5°C 93% 12.8 mph E20.6 kmh E 17.0 mph27.4 kmh 29.40 in995.6 mb 0.00 in0.0 mm 0.00 in0.0 mm 0.00 in0.0 mm
04:29 AM 41.7°F5.4°C 40.1°F4.5°C 94% 11.6 mph ESE18.7 kmh ESE 15.9 mph25.6 kmh 29.40 in995.6 mb 0.00 in0.0 mm 0.00 in0.0 mm 0.00 in0.0 mm
04:24 AM 41.7°F5.4°C 40.1°F4.5°C 94% 8.9 mph SE14.3 kmh SE 17.0 mph27.4 kmh 29.40 in995.6 mb 0.00 in0.0 mm 0.00 in0.0 mm 0.00 in0.0 mm
04:19 AM 41.5°F5.3°C 39.9°F4.4°C 94% 11.2 mph SE18.0 kmh SE 15.9 mph25.6 kmh 29.40 in995.6 mb 0.00 in0.0 mm 0.00 in0.0 mm 0.00 in0.0 mm
04:14 AM 41.5°F5.3°C 39.9°F4.4°C 94% 10.1 mph ESE16.3 kmh ESE 15.9 mph25.6 kmh 29.40 in995.6 mb 0.00 in0.0 mm 0.00 in0.0 mm 0.00 in0.0 mm
04:09 AM 41.5°F5.3°C 39.9°F4.4°C 94% 12.5 mph ESE20.1 kmh ESE 17.0 mph27.4 kmh 29.41 in995.9 mb 0.00 in0.0 mm 0.00 in0.0 mm 0.00 in0.0 mm
04:04 AM 41.5°F5.3°C 39.9°F4.4°C 94% 9.6 mph ESE15.4 kmh ESE 13.9 mph22.4 kmh 29.41 in995.9 mb 0.00 in0.0 mm 0.00 in0.0 mm 0.00 in0.0 mm
03:59 AM 41.4°F5.2°C 39.7°F4.3°C 94% 11.0 mph ESE17.7 kmh ESE 15.9 mph25.6 kmh 29.41 in995.9 mb 0.00 in0.0 mm 0.00 in0.0 mm 0.00 in0.0 mm
03:54 AM 41.4°F5.2°C 39.7°F4.3°C 94% 10.5 mph E16.9 kmh E 15.9 mph25.6 kmh 29.41 in995.9 mb 0.00 in0.0 mm 0.00 in0.0 mm 0.00 in0.0 mm
03:49 AM 41.4°F5.2°C 39.7°F4.3°C 94% 9.8 mph ESE15.8 kmh ESE 13.9 mph22.4 kmh 29.41 in995.9 mb 0.00 in0.0 mm 0.00 in0.0 mm 0.00 in0.0 mm
03:44 AM 41.2°F5.1°C 39.6°F4.2°C 94% 8.1 mph SE13.0 kmh SE 12.8 mph20.6 kmh 29.41 in995.9 mb 0.00 in0.0 mm 0.00 in0.0 mm 0.00 in0.0 mm
03:39 AM 41.2°F5.1°C 39.6°F4.2°C 94% 10.1 mph ESE16.3 kmh ESE 15.9 mph25.6 kmh 29.41 in995.9 mb 0.00 in0.0 mm 0.00 in0.0 mm 0.00 in0.0 mm
03:34 AM 41.2°F5.1°C 39.6°F4.2°C 94% 10.5 mph ESE16.9 kmh ESE 14.8 mph23.8 kmh 29.42 in996.3 mb 0.00 in0.0 mm 0.00 in0.0 mm 0.00 in0.0 mm
03:29 AM 41.4°F5.2°C 39.7°F4.3°C 94% 8.3 mph ESE13.4 kmh ESE 12.8 mph20.6 kmh 29.42 in996.3 mb 0.00 in0.0 mm 0.00 in0.0 mm 0.00 in0.0 mm
03:24 AM 41.4°F5.2°C 39.7°F4.3°C 94% 10.1 mph SE16.3 kmh SE 13.9 mph22.4 kmh 29.42 in996.3 mb 0.00 in0.0 mm 0.00 in0.0 mm 0.00 in0.0 mm
03:19 AM 41.4°F5.2°C 39.7°F4.3°C 94% 11.0 mph SE17.7 kmh SE 13.9 mph22.4 kmh 29.42 in996.3 mb 0.00 in0.0 mm 0.00 in0.0 mm 0.00 in0.0 mm
03:14 AM 41.2°F5.1°C 39.6°F4.2°C 94% 11.0 mph SE17.7 kmh SE 14.8 mph23.8 kmh 29.43 in996.6 mb 0.00 in0.0 mm 0.00 in0.0 mm 0.00 in0.0 mm
03:09 AM 41.2°F5.1°C 39.6°F4.2°C 94% 11.6 mph SE18.7 kmh SE 14.8 mph23.8 kmh 29.42 in996.3 mb 0.00 in0.0 mm 0.00 in0.0 mm 0.00 in0.0 mm
03:04 AM 41.2°F5.1°C 39.6°F4.2°C 94% 10.5 mph SE16.9 kmh SE 14.8 mph23.8 kmh 29.43 in996.6 mb 0.00 in0.0 mm 0.00 in0.0 mm 0.00 in0.0 mm
02:59 AM 41.2°F5.1°C 39.6°F4.2°C 94% 10.7 mph ESE17.2 kmh ESE 13.9 mph22.4 kmh 29.43 in996.6 mb 0.00 in0.0 mm 0.00 in0.0 mm 0.00 in0.0 mm
02:54 AM 41.2°F5.1°C 39.6°F4.2°C 94% 9.6 mph SE15.4 kmh SE 13.9 mph22.4 kmh 29.43 in996.6 mb 0.00 in0.0 mm 0.00 in0.0 mm 0.00 in0.0 mm
02:49 AM 41.4°F5.2°C 39.7°F4.3°C 94% 10.7 mph ESE17.2 kmh ESE 13.9 mph22.4 kmh 29.43 in996.6 mb 0.00 in0.0 mm 0.00 in0.0 mm 0.00 in0.0 mm
02:44 AM 41.4°F5.2°C 39.7°F4.3°C 94% 9.2 mph ESE14.8 kmh ESE 12.8 mph20.6 kmh 29.44 in997.0 mb 0.00 in0.0 mm 0.00 in0.0 mm 0.00 in0.0 mm
02:39 AM 41.4°F5.2°C 39.7°F4.3°C 94% 7.8 mph ESE12.6 kmh ESE 11.6 mph18.7 kmh 29.44 in997.0 mb 0.00 in0.0 mm 0.00 in0.0 mm 0.00 in0.0 mm
02:34 AM 41.4°F5.2°C 39.7°F4.3°C 94% 9.8 mph ESE15.8 kmh ESE 13.9 mph22.4 kmh 29.44 in997.0 mb 0.00 in0.0 mm 0.00 in0.0 mm 0.00 in0.0 mm
02:29 AM 41.4°F5.2°C 39.7°F4.3°C 94% 8.5 mph SE13.7 kmh SE 12.8 mph20.6 kmh 29.44 in997.0 mb 0.00 in0.0 mm 0.00 in0.0 mm 0.00 in0.0 mm
02:24 AM 41.4°F5.2°C 39.7°F4.3°C 94% 8.7 mph SE14.0 kmh SE 12.8 mph20.6 kmh 29.44 in997.0 mb 0.00 in0.0 mm 0.00 in0.0 mm 0.00 in0.0 mm
02:19 AM 41.4°F5.2°C 39.7°F4.3°C 94% 7.8 mph SE12.6 kmh SE 12.8 mph20.6 kmh 29.44 in997.0 mb 0.00 in0.0 mm 0.00 in0.0 mm 0.00 in0.0 mm
02:14 AM 41.5°F5.3°C 39.9°F4.4°C 94% 8.3 mph SE13.4 kmh SE 11.6 mph18.7 kmh 29.44 in997.0 mb 0.00 in0.0 mm 0.00 in0.0 mm 0.00 in0.0 mm
02:09 AM 41.5°F5.3°C 39.9°F4.4°C 94% 8.9 mph SE14.3 kmh SE 11.6 mph18.7 kmh 29.45 in997.3 mb 0.00 in0.0 mm 0.00 in0.0 mm 0.00 in0.0 mm
02:04 AM 41.5°F5.3°C 39.9°F4.4°C 94% 8.7 mph SE14.0 kmh SE 11.6 mph18.7 kmh 29.45 in997.3 mb 0.00 in0.0 mm 0.00 in0.0 mm 0.00 in0.0 mm
01:59 AM 41.5°F5.3°C 39.9°F4.4°C 94% 6.5 mph SSE10.5 kmh SSE 12.8 mph20.6 kmh 29.45 in997.3 mb 0.00 in0.0 mm 0.00 in0.0 mm 0.00 in0.0 mm
01:54 AM 41.5°F5.3°C 39.9°F4.4°C 94% 8.1 mph SE13.0 kmh SE 12.8 mph20.6 kmh 29.45 in997.3 mb 0.00 in0.0 mm 0.00 in0.0 mm 0.00 in0.0 mm
01:49 AM 41.5°F5.3°C 39.9°F4.4°C 94% 8.3 mph SE13.4 kmh SE 12.8 mph20.6 kmh 29.45 in997.3 mb 0.00 in0.0 mm 0.00 in0.0 mm 0.00 in0.0 mm
01:44 AM 41.5°F5.3°C 39.9°F4.4°C 94% 6.5 mph SE10.5 kmh SE 11.6 mph18.7 kmh 29.45 in997.3 mb 0.00 in0.0 mm 0.00 in0.0 mm 0.00 in0.0 mm
01:39 AM 41.5°F5.3°C 39.9°F4.4°C 94% 6.7 mph SE10.8 kmh SE 10.5 mph16.9 kmh 29.46 in997.6 mb 0.00 in0.0 mm 0.00 in0.0 mm 0.00 in0.0 mm
01:34 AM 41.7°F5.4°C 40.1°F4.5°C 94% 5.8 mph SE9.3 kmh SE 11.6 mph18.7 kmh 29.46 in997.6 mb 0.00 in0.0 mm 0.00 in0.0 mm 0.00 in0.0 mm
01:29 AM 41.5°F5.3°C 39.9°F4.4°C 94% 7.2 mph S11.6 kmh S 11.6 mph18.7 kmh 29.45 in997.3 mb 0.00 in0.0 mm 0.00 in0.0 mm 0.00 in0.0 mm
01:24 AM 41.7°F5.4°C 40.1°F4.5°C 94% 5.4 mph SE8.7 kmh SE 10.5 mph16.9 kmh 29.46 in997.6 mb 0.00 in0.0 mm 0.00 in0.0 mm 0.00 in0.0 mm
01:19 AM 41.5°F5.3°C 39.9°F4.4°C 94% 7.6 mph SE12.2 kmh SE 12.8 mph20.6 kmh 29.46 in997.6 mb 0.00 in0.0 mm 0.00 in0.0 mm 0.00 in0.0 mm
01:14 AM 41.5°F5.3°C 39.7°F4.3°C 93% 9.6 mph SE15.4 kmh SE 12.8 mph20.6 kmh 29.46 in997.6 mb 0.00 in0.0 mm 0.00 in0.0 mm 0.00 in0.0 mm
01:09 AM 41.7°F5.4°C 39.9°F4.4°C 93% 6.3 mph SE10.1 kmh SE 10.5 mph16.9 kmh 29.46 in997.6 mb 0.00 in0.0 mm 0.00 in0.0 mm 0.00 in0.0 mm
01:04 AM 41.7°F5.4°C 39.9°F4.4°C 93% 5.4 mph SE8.7 kmh SE 10.5 mph16.9 kmh 29.47 in998.0 mb 0.00 in0.0 mm 0.00 in0.0 mm 0.00 in0.0 mm
12:59 AM 41.9°F5.5°C 40.1°F4.5°C 93% 4.7 mph S7.6 kmh S 9.6 mph15.4 kmh 29.46 in997.6 mb 0.00 in0.0 mm 0.00 in0.0 mm 0.00 in0.0 mm
12:54 AM 41.9°F5.5°C 40.1°F4.5°C 93% 5.8 mph SE9.3 kmh SE 10.5 mph16.9 kmh 29.46 in997.6 mb 0.00 in0.0 mm 0.00 in0.0 mm 0.00 in0.0 mm
12:49 AM 41.9°F5.5°C 40.1°F4.5°C 93% 5.4 mph ESE8.7 kmh ESE 11.6 mph18.7 kmh 29.46 in997.6 mb 0.00 in0.0 mm 0.00 in0.0 mm 0.00 in0.0 mm
12:44 AM 41.7°F5.4°C 39.9°F4.4°C 93% 5.8 mph SE9.3 kmh SE 11.6 mph18.7 kmh 29.46 in997.6 mb 0.00 in0.0 mm 0.00 in0.0 mm 0.00 in0.0 mm
12:39 AM 41.7°F5.4°C 39.9°F4.4°C 93% 7.2 mph SE11.6 kmh SE 11.6 mph18.7 kmh 29.46 in997.6 mb 0.00 in0.0 mm 0.00 in0.0 mm 0.00 in0.0 mm
12:34 AM 41.7°F5.4°C 39.9°F4.4°C 93% 7.6 mph SE12.2 kmh SE 12.8 mph20.6 kmh 29.46 in997.6 mb 0.00 in0.0 mm 0.00 in0.0 mm 0.00 in0.0 mm
12:29 AM 41.7°F5.4°C 39.9°F4.4°C 93% 4.9 mph SE7.9 kmh SE 10.5 mph16.9 kmh 29.47 in998.0 mb 0.00 in0.0 mm 0.00 in0.0 mm 0.00 in0.0 mm
12:24 AM 41.7°F5.4°C 39.9°F4.4°C 93% 7.2 mph SSE11.6 kmh SSE 10.5 mph16.9 kmh 29.47 in998.0 mb 0.00 in0.0 mm 0.00 in0.0 mm 0.00 in0.0 mm
12:19 AM 41.9°F5.5°C 40.1°F4.5°C 93% 5.4 mph SSE8.7 kmh SSE 9.6 mph15.4 kmh 29.47 in998.0 mb 0.00 in0.0 mm 0.00 in0.0 mm 0.00 in0.0 mm
12:14 AM 41.9°F5.5°C 40.1°F4.5°C 93% 4.9 mph S7.9 kmh S 8.5 mph13.7 kmh 29.47 in998.0 mb 0.00 in0.0 mm 0.00 in0.0 mm 0.00 in0.0 mm
12:09 AM 42.1°F5.6°C 40.3°F4.6°C 93% 3.8 mph S6.1 kmh S 8.5 mph13.7 kmh 29.47 in998.0 mb 0.00 in0.0 mm 0.00 in0.0 mm 0.00 in0.0 mm
12:04 AM 42.1°F5.6°C 40.3°F4.6°C 93% 4.5 mph SE7.2 kmh SE 9.6 mph15.4 kmh 29.47 in998.0 mb 0.00 in0.0 mm 0.00 in0.0 mm 0.00 in0.0 mm